createdAt,value
2019-02-07T00:00:35.741Z,2.00
2019-02-07T00:03:04.807Z,2.01
2019-02-07T00:05:33.475Z,2.07
2019-02-07T00:08:02.144Z,2.20
2019-02-07T00:10:30.937Z,2.41
2019-02-07T00:12:59.894Z,2.49
2019-02-07T00:15:28.584Z,2.52
2019-02-07T00:17:57.257Z,2.62
2019-02-07T00:20:26.146Z,2.66
2019-02-07T00:22:54.885Z,2.68
2019-02-07T00:25:23.575Z,2.68
2019-02-07T00:27:52.628Z,2.61
2019-02-07T00:30:22.913Z,2.53
2019-02-07T00:32:51.699Z,2.56
2019-02-07T00:35:20.458Z,2.64
2019-02-07T00:37:49.161Z,2.68
2019-02-07T00:40:19.527Z,2.64
2019-02-07T00:42:49.361Z,2.57
2019-02-07T00:45:19.352Z,2.63
2019-02-07T00:47:48.412Z,2.66
2019-02-07T00:50:20.630Z,2.69
2019-02-07T00:52:49.468Z,2.57
2019-02-07T00:55:22.069Z,2.52
2019-02-07T00:57:50.716Z,2.45
2019-02-07T01:00:25.100Z,2.49
2019-02-07T01:02:53.962Z,2.46
2019-02-07T01:05:23.439Z,2.32
2019-02-07T01:07:52.910Z,2.36
2019-02-07T01:10:29.775Z,2.46
2019-02-07T01:12:58.829Z,2.54
2019-02-07T01:15:29.483Z,2.63
2019-02-07T01:17:58.250Z,2.49
2019-02-07T01:20:26.998Z,2.53
2019-02-07T01:22:56.068Z,2.60
2019-02-07T01:25:25.332Z,2.65
2019-02-07T01:27:54.501Z,2.52
2019-02-07T01:30:25.516Z,2.45
2019-02-07T01:32:54.293Z,2.34
2019-02-07T01:35:23.060Z,2.38
2019-02-07T01:37:52.108Z,2.41
2019-02-07T01:40:22.077Z,2.37
2019-02-07T01:42:50.803Z,2.24
2019-02-07T01:45:25.481Z,2.33
2019-02-07T01:47:54.182Z,2.38
2019-02-07T01:50:26.960Z,2.40
2019-02-07T01:52:55.653Z,2.42
2019-02-07T01:55:24.437Z,2.32
2019-02-07T01:57:53.112Z,2.35
2019-02-07T02:00:21.774Z,2.44
2019-02-07T02:02:51.543Z,2.51
2019-02-07T02:05:20.597Z,2.49
2019-02-07T02:07:50.581Z,2.43
2019-02-07T02:10:27.880Z,2.59
2019-02-07T02:12:56.639Z,2.57
2019-02-07T02:15:25.979Z,2.53
2019-02-07T02:17:54.756Z,2.47
2019-02-07T02:20:25.665Z,2.40
2019-02-07T02:22:56.022Z,2.30
2019-02-07T02:25:25.097Z,2.34
2019-02-07T02:27:54.262Z,2.26
2019-02-07T02:30:31.162Z,2.24
2019-02-07T02:33:00.246Z,2.30
2019-02-07T02:35:28.968Z,2.27
2019-02-07T02:37:57.653Z,2.28
2019-02-07T02:40:26.527Z,2.13
2019-02-07T02:42:55.256Z,2.14
2019-02-07T02:45:36.577Z,2.18
2019-02-07T02:47:57.504Z,2.24
2019-02-07T02:50:26.303Z,2.32
2019-02-07T02:52:54.961Z,2.29
2019-02-07T02:55:25.218Z,2.33
2019-02-07T02:57:53.884Z,2.31
2019-02-07T03:00:26.859Z,2.22
2019-02-07T03:03:13.496Z,2.26
2019-02-07T03:05:59.074Z,2.22
2019-02-07T03:08:41.517Z,2.09
2019-02-07T03:11:20.539Z,2.19
2019-02-07T03:14:06.000Z,2.30
2019-02-07T03:16:48.338Z,2.29
2019-02-07T03:19:34.946Z,2.34
2019-02-07T03:22:05.486Z,2.36
2019-02-07T03:24:44.665Z,2.39
2019-02-07T03:27:31.306Z,2.34
2019-02-07T03:30:18.199Z,2.28
2019-02-07T03:32:48.719Z,2.34
2019-02-07T03:35:28.197Z,2.42
2019-02-07T03:38:01.321Z,2.29
2019-02-07T03:40:43.842Z,2.47
2019-02-07T03:43:26.022Z,2.42
2019-02-07T03:46:02.772Z,2.38
2019-02-07T03:48:33.924Z,2.19
2019-02-07T03:51:12.975Z,2.33
2019-02-07T03:53:49.133Z,2.36
2019-02-07T03:56:35.822Z,2.18
2019-02-07T03:59:15.248Z,2.02
2019-02-07T04:02:01.946Z,1.95
2019-02-07T04:04:49.166Z,2.00
2019-02-07T04:07:19.390Z,1.98
2019-02-07T04:10:04.947Z,1.99
2019-02-07T04:12:47.156Z,2.11
2019-02-07T04:15:17.798Z,2.02
2019-02-07T04:17:48.032Z,2.01
2019-02-07T04:20:33.331Z,2.13
2019-02-07T04:23:06.137Z,2.21
2019-02-07T04:25:45.870Z,2.28
2019-02-07T04:28:16.102Z,2.19
2019-02-07T04:30:46.329Z,2.11
2019-02-07T04:33:31.625Z,2.32
2019-02-07T04:36:14.003Z,2.30
2019-02-07T04:38:59.256Z,2.35
2019-02-07T04:41:38.491Z,2.25
2019-02-07T04:44:24.897Z,2.35
2019-02-07T04:47:07.210Z,2.34
2019-02-07T04:49:55.760Z,2.37
2019-02-07T04:52:42.573Z,2.30
2019-02-07T04:55:29.046Z,2.18
2019-02-07T04:58:02.404Z,2.20
2019-02-07T05:00:35.440Z,2.10
2019-02-07T05:03:22.149Z,2.07
2019-02-07T05:06:10.677Z,2.06
2019-02-07T05:09:04.397Z,2.14
2019-02-07T05:11:37.648Z,2.12
2019-02-07T05:14:11.286Z,1.92
2019-02-07T05:16:44.435Z,2.07
2019-02-07T05:19:23.729Z,2.07
2019-02-07T05:21:54.060Z,2.08
2019-02-07T05:24:33.256Z,2.05
2019-02-07T05:27:03.488Z,2.07
2019-02-07T05:29:42.971Z,1.93
2019-02-07T05:32:29.873Z,1.86
2019-02-07T05:35:00.534Z,1.76
2019-02-07T05:37:33.535Z,1.76
2019-02-07T05:40:03.799Z,1.76
2019-02-07T05:42:40.300Z,1.78
2019-02-07T05:45:29.659Z,1.74
2019-02-07T05:48:15.005Z,1.79
2019-02-07T05:50:54.282Z,2.01
2019-02-07T05:53:41.952Z,2.01
2019-02-07T05:56:12.205Z,2.11
2019-02-07T05:58:42.460Z,2.11
2019-02-07T06:01:24.668Z,2.04
2019-02-07T06:03:54.943Z,2.12
2019-02-07T06:06:28.030Z,2.17
2019-02-07T06:09:10.554Z,2.31
2019-02-07T06:11:40.819Z,2.41
2019-02-07T06:14:17.122Z,2.55
2019-02-07T06:17:03.630Z,2.68
2019-02-07T06:19:43.062Z,2.76
2019-02-07T06:22:13.309Z,2.78
2019-02-07T06:24:52.627Z,2.73
2019-02-07T06:27:39.167Z,2.80
2019-02-07T06:30:15.304Z,2.93
2019-02-07T06:33:01.736Z,3.11
2019-02-07T06:35:35.011Z,3.27
2019-02-07T06:38:08.014Z,3.32
2019-02-07T06:40:54.395Z,3.26
2019-02-07T06:43:34.106Z,3.41
2019-02-07T06:46:07.187Z,3.49
2019-02-07T06:48:43.489Z,3.48
2019-02-07T06:51:16.601Z,3.56
2019-02-07T06:53:49.796Z,3.67
2019-02-07T06:56:26.050Z,3.63
2019-02-07T06:58:56.384Z,3.58
2019-02-07T07:01:29.794Z,3.22
2019-02-07T07:04:03.075Z,3.25
2019-02-07T07:06:45.395Z,3.20
2019-02-07T07:09:27.923Z,3.27
2019-02-07T07:12:14.293Z,3.26
2019-02-07T07:15:00.442Z,3.40
2019-02-07T07:17:33.739Z,3.62
2019-02-07T07:20:07.426Z,3.75
2019-02-07T07:22:49.631Z,3.81
2019-02-07T07:25:28.986Z,4.14
2019-02-07T07:28:11.359Z,4.27
2019-02-07T07:30:48.169Z,4.24
2019-02-07T07:33:30.474Z,4.36
2019-02-07T07:36:00.774Z,4.36
2019-02-07T07:38:34.034Z,4.49
2019-02-07T07:41:04.278Z,4.54
2019-02-07T07:43:34.698Z,4.60
2019-02-07T07:46:17.199Z,4.79
2019-02-07T07:48:53.128Z,4.76
2019-02-07T07:51:26.447Z,4.90
2019-02-07T07:54:13.024Z,5.06
2019-02-07T07:56:49.723Z,5.36
2019-02-07T07:59:35.337Z,5.06
2019-02-07T08:02:21.646Z,5.09
2019-02-07T08:05:03.985Z,5.26
2019-02-07T08:07:34.269Z,5.65
2019-02-07T08:10:07.638Z,5.67
2019-02-07T08:12:38.056Z,5.70
2019-02-07T08:15:26.442Z,5.50
2019-02-07T08:17:57.391Z,5.41
2019-02-07T08:20:27.696Z,5.45
2019-02-07T08:23:07.054Z,5.46
2019-02-07T08:25:49.619Z,5.69
2019-02-07T08:28:35.503Z,5.79
2019-02-07T08:31:06.066Z,5.52
2019-02-07T08:33:39.097Z,4.75
2019-02-07T08:36:14.325Z,4.57
2019-02-07T08:38:50.761Z,4.75
2019-02-07T08:41:21.053Z,5.16
2019-02-07T08:44:03.645Z,5.44
2019-02-07T08:46:52.118Z,5.72
2019-02-07T08:49:34.466Z,5.91
2019-02-07T08:52:07.874Z,6.02
2019-02-07T08:54:38.140Z,6.18
2019-02-07T08:57:17.640Z,6.25
2019-02-07T09:00:04.627Z,6.30
2019-02-07T09:02:51.642Z,6.65
2019-02-07T09:05:15.809Z,6.88
2019-02-07T09:07:46.705Z,7.14
2019-02-07T09:10:32.150Z,7.73
2019-02-07T09:13:05.323Z,7.82
2019-02-07T09:15:38.593Z,7.64
2019-02-07T09:18:19.524Z,7.66
2019-02-07T09:21:07.989Z,7.58
2019-02-07T09:23:54.512Z,7.61
2019-02-07T09:26:27.684Z,7.63
2019-02-07T09:29:00.753Z,7.39
2019-02-07T09:31:49.426Z,7.96
2019-02-07T09:34:22.706Z,8.33
2019-02-07T09:36:58.729Z,7.60
2019-02-07T09:39:29.026Z,7.73
2019-02-07T09:42:15.896Z,7.73
2019-02-07T09:44:53.824Z,8.23
2019-02-07T09:47:24.083Z,8.22
2019-02-07T09:50:02.907Z,8.57
2019-02-07T09:52:33.502Z,8.38
2019-02-07T09:55:09.655Z,8.00
2019-02-07T09:57:42.904Z,8.01
2019-02-07T10:00:16.215Z,7.39
2019-02-07T10:02:49.231Z,7.16
2019-02-07T10:05:28.592Z,7.64
2019-02-07T10:08:01.769Z,8.04
2019-02-07T10:10:41.395Z,7.83
2019-02-07T10:13:27.743Z,7.79
2019-02-07T10:16:10.413Z,7.75
2019-02-07T10:22:12.678Z,7.91
2019-02-07T10:24:49.593Z,8.51
2019-02-07T10:27:35.077Z,8.97
2019-02-07T10:30:21.299Z,9.36
2019-02-07T10:32:54.633Z,9.54
2019-02-07T10:35:27.982Z,10.04
2019-02-07T10:38:16.496Z,9.68
2019-02-07T10:40:46.716Z,9.49
2019-02-07T10:43:33.202Z,9.67
2019-02-07T10:46:06.535Z,9.96
2019-02-07T10:48:54.269Z,10.21
2019-02-07T10:51:42.545Z,10.75
2019-02-07T10:54:23.419Z,10.50
2019-02-07T10:57:10.050Z,9.91
2019-02-07T10:59:55.146Z,10.28
2019-02-07T11:02:40.671Z,9.71
2019-02-07T11:05:25.592Z,9.98
2019-02-07T11:08:08.287Z,9.80
2019-02-07T11:10:44.715Z,10.20
2019-02-07T11:13:23.988Z,10.31
2019-02-07T11:15:57.107Z,11.60
2019-02-07T11:18:55.217Z,13.75
2019-02-07T11:21:17.715Z,14.41
2019-02-07T11:23:51.026Z,14.96
2019-02-07T11:26:24.390Z,13.07
2019-02-07T11:28:54.817Z,11.41
2019-02-07T11:31:25.252Z,11.71
2019-02-07T11:33:55.510Z,11.80
2019-02-07T11:36:31.812Z,11.77
2019-02-07T11:39:18.059Z,11.98
2019-02-07T11:41:51.082Z,12.08
2019-02-07T11:44:24.368Z,11.25
2019-02-07T11:47:04.983Z,10.99
2019-02-07T11:49:26.648Z,11.13
2019-02-07T11:52:09.254Z,11.72
2019-02-07T11:54:39.535Z,11.74
2019-02-07T11:57:19.200Z,11.27
2019-02-07T12:00:01.305Z,11.19
2019-02-07T12:02:47.983Z,11.71
2019-02-07T12:05:18.235Z,12.32
2019-02-07T12:08:05.180Z,12.71
2019-02-07T12:10:35.484Z,13.49
2019-02-07T12:13:24.105Z,14.04
2019-02-07T12:16:06.816Z,14.46
2019-02-07T12:18:53.156Z,17.62
2019-02-07T12:21:29.278Z,17.72
2019-02-07T12:24:16.328Z,14.25
2019-02-07T12:26:49.596Z,13.12
2019-02-07T12:29:24.021Z,11.62
2019-02-07T12:31:54.385Z,11.62
2019-02-07T12:34:41.210Z,10.35
2019-02-07T12:37:23.685Z,9.70
2019-02-07T12:40:10.465Z,9.79
2019-02-07T12:42:40.822Z,10.44
2019-02-07T12:45:23.923Z,11.09
2019-02-07T12:48:00.488Z,12.38
2019-02-07T12:50:42.796Z,12.05
2019-02-07T12:53:16.112Z,13.61
2019-02-07T12:55:58.230Z,14.84
2019-02-07T12:58:28.957Z,14.09
2019-02-07T13:00:59.199Z,12.67
2019-02-07T13:03:45.825Z,12.34
2019-02-07T13:06:18.857Z,11.79
2019-02-07T13:08:49.083Z,10.51
2019-02-07T13:11:35.460Z,11.65
2019-02-07T13:14:09.340Z,12.46
2019-02-07T13:16:39.603Z,11.98
2019-02-07T13:19:09.936Z,12.89
2019-02-07T13:21:56.684Z,14.64
2019-02-07T13:24:32.628Z,11.95
2019-02-07T13:27:03.208Z,13.53
2019-02-07T13:29:33.814Z,15.84
2019-02-07T13:32:10.536Z,17.56
2019-02-07T13:34:40.777Z,17.30
2019-02-07T13:37:17.362Z,16.99
2019-02-07T13:40:03.822Z,18.82
2019-02-07T13:42:34.047Z,19.03
2019-02-07T13:45:10.307Z,17.30
2019-02-07T13:47:44.597Z,17.22
2019-02-07T13:50:15.022Z,16.95
2019-02-07T13:53:00.324Z,18.16
2019-02-07T13:55:37.453Z,19.61
2019-02-07T13:58:16.883Z,18.61
2019-02-07T14:01:03.432Z,17.32
2019-02-07T14:03:48.845Z,17.26
2019-02-07T14:06:19.124Z,16.96
2019-02-07T14:09:07.706Z,15.62
2019-02-07T14:11:54.441Z,14.01
2019-02-07T14:14:24.847Z,13.04
2019-02-07T14:17:07.179Z,10.84
2019-02-07T14:19:40.323Z,10.12
2019-02-07T14:22:27.438Z,8.97
2019-02-07T14:25:00.443Z,8.23
2019-02-07T14:27:47.136Z,6.98
2019-02-07T14:30:26.489Z,7.06
2019-02-07T14:33:12.916Z,6.74
2019-02-07T14:35:59.241Z,6.52
2019-02-07T14:38:45.912Z,6.53
2019-02-07T14:41:16.172Z,6.41
2019-02-07T14:43:49.176Z,6.68
2019-02-07T14:46:28.396Z,7.08
2019-02-07T14:48:57.134Z,7.29
2019-02-07T14:51:25.860Z,7.40
2019-02-07T14:53:54.532Z,7.36
2019-02-07T14:56:23.321Z,7.24
2019-02-07T14:58:52.368Z,7.09
2019-02-07T15:01:21.052Z,7.21
2019-02-07T15:03:52.789Z,7.05
2019-02-07T15:06:21.489Z,6.89
2019-02-07T15:08:50.142Z,6.62
2019-02-07T15:11:18.835Z,6.42
2019-02-07T15:13:47.788Z,6.20
2019-02-07T15:16:16.494Z,6.20
2019-02-07T15:18:46.146Z,6.03
2019-02-07T15:21:15.053Z,6.06
2019-02-07T15:23:43.816Z,5.90
2019-02-07T15:26:12.494Z,5.78
2019-02-07T15:28:41.348Z,5.58
2019-02-07T15:31:10.134Z,5.35
2019-02-07T15:33:38.917Z,5.24
2019-02-07T15:36:09.478Z,5.06
2019-02-07T15:38:38.244Z,4.95
2019-02-07T15:41:07.136Z,4.89
2019-02-07T15:43:38.681Z,4.90
2019-02-07T15:46:11.101Z,4.79
2019-02-07T15:48:39.885Z,4.68
2019-02-07T15:51:09.218Z,4.63
2019-02-07T15:53:37.903Z,4.51
2019-02-07T15:56:06.939Z,4.45
2019-02-07T15:58:37.230Z,4.49
2019-02-07T16:01:27.227Z,4.34
2019-02-07T16:03:57.504Z,4.30
2019-02-07T16:06:26.175Z,4.24
2019-02-07T16:08:54.849Z,4.25
2019-02-07T16:11:23.584Z,4.28
2019-02-07T16:13:52.251Z,4.27
2019-02-07T16:16:21.115Z,4.29
2019-02-07T16:18:49.783Z,4.25
2019-02-07T16:21:20.118Z,4.28
2019-02-07T16:23:48.799Z,4.27
2019-02-07T16:26:17.475Z,4.25
2019-02-07T16:28:46.256Z,4.16
2019-02-07T16:31:14.899Z,4.16
2019-02-07T16:33:43.685Z,4.02
2019-02-07T16:36:12.655Z,4.09
2019-02-07T16:38:41.361Z,4.24
2019-02-07T16:41:10.709Z,4.32
2019-02-07T16:43:39.503Z,4.44
2019-02-07T16:46:08.171Z,4.52
2019-02-07T16:48:36.849Z,4.57
2019-02-07T16:51:06.242Z,4.54
2019-02-07T16:53:35.821Z,4.52
2019-02-07T16:56:05.467Z,4.46
2019-02-07T16:58:34.215Z,4.49
2019-02-07T17:01:02.985Z,4.49
2019-02-07T17:03:31.667Z,4.33
2019-02-07T17:06:00.331Z,4.27
2019-02-07T17:08:29.012Z,4.16
2019-02-07T17:10:58.142Z,4.06
2019-02-07T17:13:26.819Z,3.96
2019-02-07T17:15:55.506Z,3.96
2019-02-07T17:18:24.197Z,3.97
2019-02-07T17:20:52.937Z,3.95
2019-02-07T17:23:26.720Z,3.84
2019-02-07T17:25:56.159Z,3.72
2019-02-07T17:28:24.845Z,3.72
2019-02-07T17:30:53.610Z,3.69
2019-02-07T17:33:22.304Z,3.56
2019-02-07T17:35:50.950Z,3.52
2019-02-07T17:38:19.625Z,3.55
2019-02-07T17:40:48.388Z,3.52
2019-02-07T17:43:17.086Z,3.50
2019-02-07T17:45:45.777Z,3.52
2019-02-07T17:48:14.460Z,3.48
2019-02-07T17:50:43.133Z,3.48
2019-02-07T17:53:13.316Z,3.40
2019-02-07T17:55:42.021Z,3.27
2019-02-07T17:58:11.683Z,3.23
2019-02-07T18:00:45.529Z,3.24
2019-02-07T18:03:14.285Z,3.26
2019-02-07T18:05:43.754Z,3.26
2019-02-07T18:08:12.655Z,3.28
2019-02-07T18:10:41.847Z,3.39
2019-02-07T18:13:10.589Z,3.24
2019-02-07T18:15:39.272Z,3.32
2019-02-07T18:18:08.143Z,3.30
2019-02-07T18:20:36.829Z,3.24
2019-02-07T18:23:05.516Z,3.40
2019-02-07T18:25:34.189Z,3.45
2019-02-07T18:28:03.459Z,3.41
2019-02-07T18:30:32.249Z,3.50
2019-02-07T18:33:00.979Z,3.57
2019-02-07T18:35:29.689Z,3.66
2019-02-07T18:37:58.353Z,3.76
2019-02-07T18:40:31.651Z,3.80
2019-02-07T18:43:00.817Z,3.72
2019-02-07T18:45:29.575Z,3.72
2019-02-07T18:47:58.242Z,3.66
2019-02-07T18:50:32.507Z,3.43
2019-02-07T18:53:01.201Z,3.33
2019-02-07T18:55:29.893Z,3.08
2019-02-07T18:57:59.265Z,3.40
2019-02-07T19:00:30.777Z,3.46
2019-02-07T19:02:59.535Z,3.51
2019-02-07T19:05:28.314Z,3.52
2019-02-07T19:07:57.000Z,3.51
2019-02-07T19:10:28.222Z,3.55
2019-02-07T19:12:57.403Z,3.58
2019-02-07T19:15:32.271Z,3.61
2019-02-07T19:18:00.955Z,3.52
2019-02-07T19:20:29.652Z,3.59
2019-02-07T19:22:58.372Z,3.63
2019-02-07T19:25:27.084Z,3.62
2019-02-07T19:27:56.240Z,3.68
2019-02-07T19:30:30.434Z,3.61
2019-02-07T19:32:59.580Z,3.71
2019-02-07T19:35:28.216Z,3.69
2019-02-07T19:37:56.904Z,3.74
2019-02-07T19:40:25.577Z,3.64
2019-02-07T19:42:54.629Z,3.56
2019-02-07T19:45:25.230Z,3.28
2019-02-07T19:47:53.904Z,2.85
2019-02-07T19:50:24.956Z,3.11
2019-02-07T19:52:53.637Z,3.24
2019-02-07T19:55:24.865Z,3.16
2019-02-07T19:57:53.729Z,3.09
2019-02-07T20:00:24.586Z,3.11
2019-02-07T20:02:53.653Z,3.10
2019-02-07T20:05:22.436Z,3.15
2019-02-07T20:07:51.111Z,3.23
2019-02-07T20:10:25.129Z,3.34
2019-02-07T20:12:54.287Z,3.46
2019-02-07T20:15:28.350Z,3.55
2019-02-07T20:17:59.721Z,3.62
2019-02-07T20:20:27.523Z,3.69
2019-02-07T20:22:56.355Z,3.65
2019-02-07T20:25:25.135Z,3.58
2019-02-07T20:27:53.814Z,3.52
2019-02-07T20:30:28.315Z,3.38
2019-02-07T20:32:58.459Z,3.25
2019-02-07T20:35:27.233Z,3.21
2019-02-07T20:37:55.923Z,3.37
2019-02-07T20:40:26.686Z,3.39
2019-02-07T20:42:55.450Z,3.46
2019-02-07T20:45:25.392Z,3.41
2019-02-07T20:47:54.170Z,3.43
2019-02-07T20:50:27.502Z,3.32
2019-02-07T20:52:56.593Z,3.36
2019-02-07T20:55:25.675Z,3.45
2019-02-07T20:57:55.448Z,3.46
2019-02-07T21:00:29.891Z,3.41
2019-02-07T21:02:58.670Z,3.43
2019-02-07T21:05:28.640Z,3.36
2019-02-07T21:07:57.438Z,3.29
2019-02-07T21:10:28.657Z,3.31
2019-02-07T21:12:57.342Z,3.24
2019-02-07T21:15:26.807Z,3.15
2019-02-07T21:17:55.495Z,3.11
2019-02-07T21:20:31.842Z,3.04
2019-02-07T21:23:01.538Z,3.10
2019-02-07T21:25:32.877Z,3.28
2019-02-07T21:28:01.548Z,3.31
2019-02-07T21:30:31.887Z,3.35
2019-02-07T21:33:00.557Z,3.41
2019-02-07T21:35:29.891Z,3.37
2019-02-07T21:37:58.551Z,3.32
2019-02-07T21:40:29.819Z,3.37
2019-02-07T21:43:01.866Z,3.38
2019-02-07T21:45:30.910Z,3.40
2019-02-07T21:48:00.604Z,3.35
2019-02-07T21:50:33.424Z,3.36
2019-02-07T21:53:02.176Z,3.41
2019-02-07T21:55:35.946Z,3.44
2019-02-07T21:58:06.454Z,3.49
2019-02-07T22:00:46.235Z,3.53
2019-02-07T22:03:15.308Z,3.53
2019-02-07T22:05:44.512Z,3.43
2019-02-07T22:08:13.712Z,3.37
2019-02-07T22:10:42.373Z,3.30
2019-02-07T22:13:11.779Z,3.07
2019-02-07T22:15:40.466Z,3.13
2019-02-07T22:18:09.332Z,2.90
2019-02-07T22:20:38.006Z,3.13
2019-02-07T22:23:06.677Z,3.14
2019-02-07T22:25:35.960Z,3.20
2019-02-07T22:28:05.440Z,3.07
2019-02-07T22:30:36.218Z,3.04
2019-02-07T22:33:06.963Z,3.01
2019-02-07T22:35:35.745Z,3.01
2019-02-07T22:38:05.708Z,2.94
2019-02-07T22:40:34.395Z,2.92
2019-02-07T22:43:03.236Z,2.92
2019-02-07T22:45:31.930Z,2.83
2019-02-07T22:48:00.623Z,2.92
2019-02-07T22:50:31.013Z,2.84
2019-02-07T22:53:01.184Z,2.88
2019-02-07T22:55:30.205Z,2.79
2019-02-07T22:57:58.986Z,3.03
2019-02-07T23:00:37.849Z,3.07
2019-02-07T23:03:14.726Z,3.10
2019-02-07T23:05:43.998Z,3.21
2019-02-07T23:08:13.573Z,2.96
2019-02-07T23:10:43.114Z,3.22
2019-02-07T23:13:11.960Z,3.32
2019-02-07T23:15:40.891Z,3.11
2019-02-07T23:18:09.689Z,2.99
2019-02-07T23:20:38.374Z,2.95
2019-02-07T23:23:09.256Z,2.98
2019-02-07T23:25:38.525Z,2.91
2019-02-07T23:28:07.790Z,2.86
2019-02-07T23:30:36.816Z,2.77
2019-02-07T23:33:06.568Z,2.77
2019-02-07T23:35:35.231Z,2.71
2019-02-07T23:38:04.361Z,2.72
2019-02-07T23:40:33.076Z,2.74
2019-02-07T23:43:01.789Z,2.70
2019-02-07T23:45:30.553Z,2.69
2019-02-07T23:47:59.280Z,2.67
2019-02-07T23:50:27.993Z,2.69
2019-02-07T23:52:56.665Z,2.67
2019-02-07T23:55:25.346Z,2.72
2019-02-07T23:57:54.000Z,2.86
